sensor_id;sensor_type;location;lat;lon;timestamp;temperature;humidity
51029;DHT22;37054;52.054;8.600;2023-03-08T00:00:00;8.00;61.50
51029;DHT22;37054;52.054;8.600;2023-03-08T00:02:25;8.00;61.50
51029;DHT22;37054;52.054;8.600;2023-03-08T00:04:54;8.00;61.40
51029;DHT22;37054;52.054;8.600;2023-03-08T00:07:20;8.00;61.40
51029;DHT22;37054;52.054;8.600;2023-03-08T00:09:45;8.00;61.30
51029;DHT22;37054;52.054;8.600;2023-03-08T00:12:11;8.00;61.40
51029;DHT22;37054;52.054;8.600;2023-03-08T00:14:37;8.00;61.40
51029;DHT22;37054;52.054;8.600;2023-03-08T00:17:02;8.00;61.40
51029;DHT22;37054;52.054;8.600;2023-03-08T00:19:28;8.10;61.50
51029;DHT22;37054;52.054;8.600;2023-03-08T00:21:54;8.10;61.50
51029;DHT22;37054;52.054;8.600;2023-03-08T00:24:19;8.00;61.40
51029;DHT22;37054;52.054;8.600;2023-03-08T00:26:45;8.10;61.40
51029;DHT22;37054;52.054;8.600;2023-03-08T00:29:10;8.00;61.30
51029;DHT22;37054;52.054;8.600;2023-03-08T00:31:36;8.00;61.40
51029;DHT22;37054;52.054;8.600;2023-03-08T00:34:02;8.00;61.40
51029;DHT22;37054;52.054;8.600;2023-03-08T00:36:27;8.00;61.40
51029;DHT22;37054;52.054;8.600;2023-03-08T00:38:53;8.00;61.40
51029;DHT22;37054;52.054;8.600;2023-03-08T00:41:18;8.00;61.40
51029;DHT22;37054;52.054;8.600;2023-03-08T00:43:44;8.00;61.40
51029;DHT22;37054;52.054;8.600;2023-03-08T00:46:10;8.00;61.40
51029;DHT22;37054;52.054;8.600;2023-03-08T00:48:35;8.00;61.30
51029;DHT22;37054;52.054;8.600;2023-03-08T00:51:01;8.00;61.40
51029;DHT22;37054;52.054;8.600;2023-03-08T00:53:26;8.00;61.40
51029;DHT22;37054;52.054;8.600;2023-03-08T00:55:53;8.00;61.40
51029;DHT22;37054;52.054;8.600;2023-03-08T00:58:18;8.00;61.40
51029;DHT22;37054;52.054;8.600;2023-03-08T01:00:45;8.00;61.50
51029;DHT22;37054;52.054;8.600;2023-03-08T01:03:11;8.00;61.50
51029;DHT22;37054;52.054;8.600;2023-03-08T01:05:39;8.00;61.50
51029;DHT22;37054;52.054;8.600;2023-03-08T01:08:05;8.00;61.40
51029;DHT22;37054;52.054;8.600;2023-03-08T01:10:31;8.00;61.50
51029;DHT22;37054;52.054;8.600;2023-03-08T01:12:56;8.00;61.50
51029;DHT22;37054;52.054;8.600;2023-03-08T01:15:22;8.00;61.50
51029;DHT22;37054;52.054;8.600;2023-03-08T01:17:48;8.00;61.60
51029;DHT22;37054;52.054;8.600;2023-03-08T01:20:14;8.10;61.60
51029;DHT22;37054;52.054;8.600;2023-03-08T01:22:39;8.10;61.40
51029;DHT22;37054;52.054;8.600;2023-03-08T01:25:05;8.10;61.40
51029;DHT22;37054;52.054;8.600;2023-03-08T01:27:32;8.10;61.40
51029;DHT22;37054;52.054;8.600;2023-03-08T01:29:58;8.10;61.40
51029;DHT22;37054;52.054;8.600;2023-03-08T01:32:23;8.10;61.30
51029;DHT22;37054;52.054;8.600;2023-03-08T01:34:49;8.10;61.30
51029;DHT22;37054;52.054;8.600;2023-03-08T01:37:14;8.10;61.20
51029;DHT22;37054;52.054;8.600;2023-03-08T01:39:40;8.10;61.20
51029;DHT22;37054;52.054;8.600;2023-03-08T01:42:05;8.10;61.20
51029;DHT22;37054;52.054;8.600;2023-03-08T01:44:48;8.10;61.10
51029;DHT22;37054;52.054;8.600;2023-03-08T01:47:18;8.00;61.10
51029;DHT22;37054;52.054;8.600;2023-03-08T01:49:43;8.00;61.20
51029;DHT22;37054;52.054;8.600;2023-03-08T01:52:11;8.00;61.20
51029;DHT22;37054;52.054;8.600;2023-03-08T01:57:36;7.90;61.20
51029;DHT22;37054;52.054;8.600;2023-03-08T01:59:55;7.80;61.10
51029;DHT22;37054;52.054;8.600;2023-03-08T02:02:21;7.80;61.10
51029;DHT22;37054;52.054;8.600;2023-03-08T02:04:48;7.70;61.20
51029;DHT22;37054;52.054;8.600;2023-03-08T02:07:13;7.70;61.30
51029;DHT22;37054;52.054;8.600;2023-03-08T02:09:39;7.70;61.20
51029;DHT22;37054;52.054;8.600;2023-03-08T02:12:05;7.60;61.20
51029;DHT22;37054;52.054;8.600;2023-03-08T02:14:32;7.50;61.30
51029;DHT22;37054;52.054;8.600;2023-03-08T02:16:58;7.50;61.40
51029;DHT22;37054;52.054;8.600;2023-03-08T02:19:26;7.50;61.30
51029;DHT22;37054;52.054;8.600;2023-03-08T02:21:52;7.40;61.40
51029;DHT22;37054;52.054;8.600;2023-03-08T02:24:20;7.40;61.30
51029;DHT22;37054;52.054;8.600;2023-03-08T02:26:45;7.40;61.40
51029;DHT22;37054;52.054;8.600;2023-03-08T02:29:11;7.40;61.40
51029;DHT22;37054;52.054;8.600;2023-03-08T02:31:37;7.40;61.40
51029;DHT22;37054;52.054;8.600;2023-03-08T02:34:02;7.30;61.40
51029;DHT22;37054;52.054;8.600;2023-03-08T02:36:28;7.40;61.40
51029;DHT22;37054;52.054;8.600;2023-03-08T02:38:54;7.40;61.50
51029;DHT22;37054;52.054;8.600;2023-03-08T02:41:19;7.40;61.50
51029;DHT22;37054;52.054;8.600;2023-03-08T02:43:45;7.40;61.60
51029;DHT22;37054;52.054;8.600;2023-03-08T02:46:11;7.50;61.70
51029;DHT22;37054;52.054;8.600;2023-03-08T02:48:37;7.50;61.50
51029;DHT22;37054;52.054;8.600;2023-03-08T02:51:02;7.50;61.60
51029;DHT22;37054;52.054;8.600;2023-03-08T02:53:28;7.50;61.50
51029;DHT22;37054;52.054;8.600;2023-03-08T02:55:54;7.50;61.50
51029;DHT22;37054;52.054;8.600;2023-03-08T02:58:19;7.50;61.60
51029;DHT22;37054;52.054;8.600;2023-03-08T03:00:45;7.50;61.70
51029;DHT22;37054;52.054;8.600;2023-03-08T03:03:10;7.60;61.70
51029;DHT22;37054;52.054;8.600;2023-03-08T03:05:40;7.60;61.50
51029;DHT22;37054;52.054;8.600;2023-03-08T03:08:06;7.60;61.60
51029;DHT22;37054;52.054;8.600;2023-03-08T03:10:33;7.60;61.60
51029;DHT22;37054;52.054;8.600;2023-03-08T03:12:59;7.60;61.50
51029;DHT22;37054;52.054;8.600;2023-03-08T03:15:24;7.60;61.30
51029;DHT22;37054;52.054;8.600;2023-03-08T03:17:50;7.60;61.40
51029;DHT22;37054;52.054;8.600;2023-03-08T03:20:15;7.50;61.40
51029;DHT22;37054;52.054;8.600;2023-03-08T03:22:41;7.50;61.30
51029;DHT22;37054;52.054;8.600;2023-03-08T03:25:07;7.60;61.40
51029;DHT22;37054;52.054;8.600;2023-03-08T03:27:32;7.60;61.50
51029;DHT22;37054;52.054;8.600;2023-03-08T03:29:58;7.60;61.50
51029;DHT22;37054;52.054;8.600;2023-03-08T03:32:24;7.60;61.50
51029;DHT22;37054;52.054;8.600;2023-03-08T03:34:49;7.60;61.50
51029;DHT22;37054;52.054;8.600;2023-03-08T03:37:17;7.70;61.50
51029;DHT22;37054;52.054;8.600;2023-03-08T03:39:42;7.60;61.50
51029;DHT22;37054;52.054;8.600;2023-03-08T03:42:08;7.60;61.60
51029;DHT22;37054;52.054;8.600;2023-03-08T03:44:33;7.70;61.60
51029;DHT22;37054;52.054;8.600;2023-03-08T03:47:00;7.70;61.40
51029;DHT22;37054;52.054;8.600;2023-03-08T03:49:26;7.70;61.30
51029;DHT22;37054;52.054;8.600;2023-03-08T03:51:51;7.60;61.30
51029;DHT22;37054;52.054;8.600;2023-03-08T03:54:17;7.60;61.40
51029;DHT22;37054;52.054;8.600;2023-03-08T03:56:43;7.60;61.30
51029;DHT22;37054;52.054;8.600;2023-03-08T03:59:08;7.60;61.20
51029;DHT22;37054;52.054;8.600;2023-03-08T04:01:34;7.50;61.20
51029;DHT22;37054;52.054;8.600;2023-03-08T04:03:59;7.50;61.30
51029;DHT22;37054;52.054;8.600;2023-03-08T04:06:28;7.50;61.30
51029;DHT22;37054;52.054;8.600;2023-03-08T04:08:56;7.50;61.20
51029;DHT22;37054;52.054;8.600;2023-03-08T04:11:23;7.50;61.20
51029;DHT22;37054;52.054;8.600;2023-03-08T04:13:48;7.40;61.10
51029;DHT22;37054;52.054;8.600;2023-03-08T04:16:15;7.40;61.00
51029;DHT22;37054;52.054;8.600;2023-03-08T04:18:41;7.30;61.10
51029;DHT22;37054;52.054;8.600;2023-03-08T04:21:07;7.30;61.20
51029;DHT22;37054;52.054;8.600;2023-03-08T04:23:33;7.30;61.30
51029;DHT22;37054;52.054;8.600;2023-03-08T04:25:58;7.20;61.40
51029;DHT22;37054;52.054;8.600;2023-03-08T04:28:24;7.20;61.60
51029;DHT22;37054;52.054;8.600;2023-03-08T04:30:50;7.30;61.60
51029;DHT22;37054;52.054;8.600;2023-03-08T04:33:16;7.30;61.50
51029;DHT22;37054;52.054;8.600;2023-03-08T04:35:41;7.30;61.30
51029;DHT22;37054;52.054;8.600;2023-03-08T04:38:07;7.30;61.40
51029;DHT22;37054;52.054;8.600;2023-03-08T04:40:32;7.30;61.30
51029;DHT22;37054;52.054;8.600;2023-03-08T04:43:18;7.20;61.20
51029;DHT22;37054;52.054;8.600;2023-03-08T04:45:44;7.30;61.20
51029;DHT22;37054;52.054;8.600;2023-03-08T04:48:09;7.20;61.20
51029;DHT22;37054;52.054;8.600;2023-03-08T04:50:35;7.20;61.20
51029;DHT22;37054;52.054;8.600;2023-03-08T04:53:00;7.20;61.30
51029;DHT22;37054;52.054;8.600;2023-03-08T04:55:26;7.10;61.30
51029;DHT22;37054;52.054;8.600;2023-03-08T04:57:51;7.10;61.20
51029;DHT22;37054;52.054;8.600;2023-03-08T05:00:17;7.10;61.20
51029;DHT22;37054;52.054;8.600;2023-03-08T05:02:43;7.10;61.10
51029;DHT22;37054;52.054;8.600;2023-03-08T05:05:08;7.00;61.20
51029;DHT22;37054;52.054;8.600;2023-03-08T05:07:34;7.10;61.30
51029;DHT22;37054;52.054;8.600;2023-03-08T05:09:59;7.10;61.40
51029;DHT22;37054;52.054;8.600;2023-03-08T05:12:25;7.10;61.30
51029;DHT22;37054;52.054;8.600;2023-03-08T05:14:50;7.10;61.40
51029;DHT22;37054;52.054;8.600;2023-03-08T05:17:16;7.10;61.50
51029;DHT22;37054;52.054;8.600;2023-03-08T05:19:42;7.20;61.40
51029;DHT22;37054;52.054;8.600;2023-03-08T05:22:07;7.20;61.40
51029;DHT22;37054;52.054;8.600;2023-03-08T05:24:33;7.20;61.50
51029;DHT22;37054;52.054;8.600;2023-03-08T05:26:59;7.30;61.50
51029;DHT22;37054;52.054;8.600;2023-03-08T05:29:24;7.30;61.50
51029;DHT22;37054;52.054;8.600;2023-03-08T05:31:50;7.30;61.40
51029;DHT22;37054;52.054;8.600;2023-03-08T05:34:16;7.30;61.30
51029;DHT22;37054;52.054;8.600;2023-03-08T05:36:44;7.30;61.30
51029;DHT22;37054;52.054;8.600;2023-03-08T05:39:09;7.30;61.20
51029;DHT22;37054;52.054;8.600;2023-03-08T05:41:35;7.30;61.20
51029;DHT22;37054;52.054;8.600;2023-03-08T05:44:01;7.30;61.30
51029;DHT22;37054;52.054;8.600;2023-03-08T05:46:26;7.30;61.20
51029;DHT22;37054;52.054;8.600;2023-03-08T05:48:54;7.40;61.30
51029;DHT22;37054;52.054;8.600;2023-03-08T05:51:19;7.40;61.30
51029;DHT22;37054;52.054;8.600;2023-03-08T05:53:45;7.30;61.00
51029;DHT22;37054;52.054;8.600;2023-03-08T05:56:17;7.30;60.90
51029;DHT22;37054;52.054;8.600;2023-03-08T05:58:43;7.20;60.90
51029;DHT22;37054;52.054;8.600;2023-03-08T06:01:10;7.20;60.90
51029;DHT22;37054;52.054;8.600;2023-03-08T06:03:36;7.10;61.00
51029;DHT22;37054;52.054;8.600;2023-03-08T06:06:01;7.10;61.10
51029;DHT22;37054;52.054;8.600;2023-03-08T06:08:27;7.10;61.20
51029;DHT22;37054;52.054;8.600;2023-03-08T06:10:53;7.10;61.30
51029;DHT22;37054;52.054;8.600;2023-03-08T06:13:18;7.10;61.30
51029;DHT22;37054;52.054;8.600;2023-03-08T06:15:44;7.10;61.40
51029;DHT22;37054;52.054;8.600;2023-03-08T06:18:09;7.10;61.60
51029;DHT22;37054;52.054;8.600;2023-03-08T06:20:35;7.10;61.60
51029;DHT22;37054;52.054;8.600;2023-03-08T06:23:00;7.20;61.60
51029;DHT22;37054;52.054;8.600;2023-03-08T06:25:26;7.20;61.70
51029;DHT22;37054;52.054;8.600;2023-03-08T06:27:52;7.20;61.80
51029;DHT22;37054;52.054;8.600;2023-03-08T06:30:17;7.30;61.70
51029;DHT22;37054;52.054;8.600;2023-03-08T06:32:43;7.30;61.60
51029;DHT22;37054;52.054;8.600;2023-03-08T06:35:09;7.40;61.50
51029;DHT22;37054;52.054;8.600;2023-03-08T06:37:36;7.40;61.50
51029;DHT22;37054;52.054;8.600;2023-03-08T06:40:02;7.40;61.30
51029;DHT22;37054;52.054;8.600;2023-03-08T06:42:30;7.40;61.40
51029;DHT22;37054;52.054;8.600;2023-03-08T06:44:55;7.50;61.50
51029;DHT22;37054;52.054;8.600;2023-03-08T06:47:21;7.60;61.40
51029;DHT22;37054;52.054;8.600;2023-03-08T06:49:47;7.50;61.30
51029;DHT22;37054;52.054;8.600;2023-03-08T06:52:14;7.60;61.30
51029;DHT22;37054;52.054;8.600;2023-03-08T06:54:40;7.60;61.30
51029;DHT22;37054;52.054;8.600;2023-03-08T06:57:05;7.60;61.20
51029;DHT22;37054;52.054;8.600;2023-03-08T06:59:34;7.60;61.20
51029;DHT22;37054;52.054;8.600;2023-03-08T07:01:59;7.70;61.30
51029;DHT22;37054;52.054;8.600;2023-03-08T07:04:25;7.70;61.30
51029;DHT22;37054;52.054;8.600;2023-03-08T07:06:50;7.70;61.30
51029;DHT22;37054;52.054;8.600;2023-03-08T07:09:16;7.70;61.30
51029;DHT22;37054;52.054;8.600;2023-03-08T07:11:42;7.70;61.40
51029;DHT22;37054;52.054;8.600;2023-03-08T07:14:07;7.70;61.60
51029;DHT22;37054;52.054;8.600;2023-03-08T07:16:33;7.80;61.50
51029;DHT22;37054;52.054;8.600;2023-03-08T07:19:00;7.80;61.60
51029;DHT22;37054;52.054;8.600;2023-03-08T07:21:25;7.80;61.50
51029;DHT22;37054;52.054;8.600;2023-03-08T07:23:51;7.90;61.60
51029;DHT22;37054;52.054;8.600;2023-03-08T07:26:17;8.00;61.50
51029;DHT22;37054;52.054;8.600;2023-03-08T07:28:42;8.00;61.60
51029;DHT22;37054;52.054;8.600;2023-03-08T07:31:09;8.00;61.40
51029;DHT22;37054;52.054;8.600;2023-03-08T07:33:34;8.00;61.50
51029;DHT22;37054;52.054;8.600;2023-03-08T07:36:00;8.10;61.70
51029;DHT22;37054;52.054;8.600;2023-03-08T07:38:28;8.20;61.90
51029;DHT22;37054;52.054;8.600;2023-03-08T07:40:54;8.20;61.80
51029;DHT22;37054;52.054;8.600;2023-03-08T07:43:21;8.30;61.80
51029;DHT22;37054;52.054;8.600;2023-03-08T07:45:46;8.40;62.20
51029;DHT22;37054;52.054;8.600;2023-03-08T07:48:12;8.50;62.00
51029;DHT22;37054;52.054;8.600;2023-03-08T07:50:37;8.50;62.00
51029;DHT22;37054;52.054;8.600;2023-03-08T07:53:02;8.60;61.90
51029;DHT22;37054;52.054;8.600;2023-03-08T07:55:28;8.60;61.80
51029;DHT22;37054;52.054;8.600;2023-03-08T07:57:54;8.70;61.90
51029;DHT22;37054;52.054;8.600;2023-03-08T08:00:20;8.70;61.80
51029;DHT22;37054;52.054;8.600;2023-03-08T08:02:46;8.80;61.70
51029;DHT22;37054;52.054;8.600;2023-03-08T08:05:12;8.80;61.40
51029;DHT22;37054;52.054;8.600;2023-03-08T08:07:38;8.80;61.40
51029;DHT22;37054;52.054;8.600;2023-03-08T08:10:04;8.90;61.50
51029;DHT22;37054;52.054;8.600;2023-03-08T08:12:29;8.90;61.50
51029;DHT22;37054;52.054;8.600;2023-03-08T08:14:55;8.90;61.70
51029;DHT22;37054;52.054;8.600;2023-03-08T08:17:22;9.00;61.90
51029;DHT22;37054;52.054;8.600;2023-03-08T08:19:47;9.00;61.80
51029;DHT22;37054;52.054;8.600;2023-03-08T08:22:13;9.10;61.90
51029;DHT22;37054;52.054;8.600;2023-03-08T08:24:38;9.20;61.70
51029;DHT22;37054;52.054;8.600;2023-03-08T08:27:04;9.20;61.80
51029;DHT22;37054;52.054;8.600;2023-03-08T08:29:32;9.30;61.60
51029;DHT22;37054;52.054;8.600;2023-03-08T08:31:58;9.30;61.60
51029;DHT22;37054;52.054;8.600;2023-03-08T08:34:24;9.30;61.60
51029;DHT22;37054;52.054;8.600;2023-03-08T08:36:49;9.30;61.60
51029;DHT22;37054;52.054;8.600;2023-03-08T08:39:15;9.30;61.70
51029;DHT22;37054;52.054;8.600;2023-03-08T08:41:40;9.30;61.60
51029;DHT22;37054;52.054;8.600;2023-03-08T08:44:06;9.40;61.80
51029;DHT22;37054;52.054;8.600;2023-03-08T08:46:31;9.40;61.90
51029;DHT22;37054;52.054;8.600;2023-03-08T08:48:59;9.50;62.10
51029;DHT22;37054;52.054;8.600;2023-03-08T08:51:25;9.70;62.20
51029;DHT22;37054;52.054;8.600;2023-03-08T08:53:50;9.70;61.70
51029;DHT22;37054;52.054;8.600;2023-03-08T08:56:20;9.70;61.60
51029;DHT22;37054;52.054;8.600;2023-03-08T08:58:46;9.70;61.70
51029;DHT22;37054;52.054;8.600;2023-03-08T09:01:13;9.70;61.40
51029;DHT22;37054;52.054;8.600;2023-03-08T09:03:39;9.80;61.70
51029;DHT22;37054;52.054;8.600;2023-03-08T09:06:04;9.80;61.40
51029;DHT22;37054;52.054;8.600;2023-03-08T09:08:30;9.80;60.80
51029;DHT22;37054;52.054;8.600;2023-03-08T09:11:00;9.70;61.00
51029;DHT22;37054;52.054;8.600;2023-03-08T09:13:26;9.70;61.20
51029;DHT22;37054;52.054;8.600;2023-03-08T09:15:51;9.80;61.00
51029;DHT22;37054;52.054;8.600;2023-03-08T09:18:17;9.70;60.90
51029;DHT22;37054;52.054;8.600;2023-03-08T09:20:45;9.70;61.20
51029;DHT22;37054;52.054;8.600;2023-03-08T09:23:10;9.70;61.40
51029;DHT22;37054;52.054;8.600;2023-03-08T09:25:36;9.70;61.30
51029;DHT22;37054;52.054;8.600;2023-03-08T09:28:01;9.60;61.20
51029;DHT22;37054;52.054;8.600;2023-03-08T09:30:30;9.70;61.40
51029;DHT22;37054;52.054;8.600;2023-03-08T09:32:57;9.70;61.00
51029;DHT22;37054;52.054;8.600;2023-03-08T09:35:23;9.60;61.20
51029;DHT22;37054;52.054;8.600;2023-03-08T09:37:48;9.60;61.50
51029;DHT22;37054;52.054;8.600;2023-03-08T09:40:19;9.70;61.50
51029;DHT22;37054;52.054;8.600;2023-03-08T09:42:44;9.70;61.70
51029;DHT22;37054;52.054;8.600;2023-03-08T09:45:17;9.70;61.40
51029;DHT22;37054;52.054;8.600;2023-03-08T09:47:48;9.60;61.30
51029;DHT22;37054;52.054;8.600;2023-03-08T09:50:57;9.70;61.20
51029;DHT22;37054;52.054;8.600;2023-03-08T09:55:37;9.60;61.70
51029;DHT22;37054;52.054;8.600;2023-03-08T09:58:13;9.50;62.10
51029;DHT22;37054;52.054;8.600;2023-03-08T10:00:43;9.50;61.70
51029;DHT22;37054;52.054;8.600;2023-03-08T10:05:48;9.40;61.40
51029;DHT22;37054;52.054;8.600;2023-03-08T10:08:24;9.30;61.40
51029;DHT22;37054;52.054;8.600;2023-03-08T10:10:57;9.30;61.70
51029;DHT22;37054;52.054;8.600;2023-03-08T10:15:52;9.40;62.50
51029;DHT22;37054;52.054;8.600;2023-03-08T10:18:22;9.50;63.00
51029;DHT22;37054;52.054;8.600;2023-03-08T10:20:51;9.50;62.40
51029;DHT22;37054;52.054;8.600;2023-03-08T10:23:18;9.50;61.90
51029;DHT22;37054;52.054;8.600;2023-03-08T10:25:44;9.50;62.10
51029;DHT22;37054;52.054;8.600;2023-03-08T10:28:12;9.50;62.10
51029;DHT22;37054;52.054;8.600;2023-03-08T10:30:45;9.50;61.70
51029;DHT22;37054;52.054;8.600;2023-03-08T10:33:12;9.50;61.90
51029;DHT22;37054;52.054;8.600;2023-03-08T10:38:23;9.50;61.90
51029;DHT22;37054;52.054;8.600;2023-03-08T10:40:57;9.60;62.50
51029;DHT22;37054;52.054;8.600;2023-03-08T10:43:25;9.60;62.40
51029;DHT22;37054;52.054;8.600;2023-03-08T10:46:02;9.50;61.90
51029;DHT22;37054;52.054;8.600;2023-03-08T10:48:28;9.50;62.30
51029;DHT22;37054;52.054;8.600;2023-03-08T10:51:01;9.50;62.20
51029;DHT22;37054;52.054;8.600;2023-03-08T10:53:27;9.50;62.20
51029;DHT22;37054;52.054;8.600;2023-03-08T10:55:54;9.70;62.30
51029;DHT22;37054;52.054;8.600;2023-03-08T11:01:06;9.80;62.60
51029;DHT22;37054;52.054;8.600;2023-03-08T11:03:32;10.00;62.60
51029;DHT22;37054;52.054;8.600;2023-03-08T11:06:04;10.00;62.30
51029;DHT22;37054;52.054;8.600;2023-03-08T11:08:33;10.10;62.40
51029;DHT22;37054;52.054;8.600;2023-03-08T11:11:00;10.10;62.00
51029;DHT22;37054;52.054;8.600;2023-03-08T11:13:30;10.10;61.80
51029;DHT22;37054;52.054;8.600;2023-03-08T11:21:10;10.00;61.80
51029;DHT22;37054;52.054;8.600;2023-03-08T11:24:12;10.10;62.00
51029;DHT22;37054;52.054;8.600;2023-03-08T11:29:07;10.10;61.50
51029;DHT22;37054;52.054;8.600;2023-03-08T11:31:41;10.00;61.50
51029;DHT22;37054;52.054;8.600;2023-03-08T11:34:14;10.10;62.20
51029;DHT22;37054;52.054;8.600;2023-03-08T11:36:47;10.20;62.50
51029;DHT22;37054;52.054;8.600;2023-03-08T11:39:29;10.30;62.00
51029;DHT22;37054;52.054;8.600;2023-03-08T11:44:37;10.20;61.80
51029;DHT22;37054;52.054;8.600;2023-03-08T11:47:30;10.30;62.10
51029;DHT22;37054;52.054;8.600;2023-03-08T11:50:05;10.50;62.40
51029;DHT22;37054;52.054;8.600;2023-03-08T11:57:52;10.70;61.90
51029;DHT22;37054;52.054;8.600;2023-03-08T12:05:43;10.70;61.20
51029;DHT22;37054;52.054;8.600;2023-03-08T12:08:33;10.50;60.80
51029;DHT22;37054;52.054;8.600;2023-03-08T12:13:37;10.30;60.80
51029;DHT22;37054;52.054;8.600;2023-03-08T12:16:14;10.00;60.30
51029;DHT22;37054;52.054;8.600;2023-03-08T12:18:47;9.90;60.20
51029;DHT22;37054;52.054;8.600;2023-03-08T12:21:31;9.80;60.40
51029;DHT22;37054;52.054;8.600;2023-03-08T12:26:36;9.70;61.30
51029;DHT22;37054;52.054;8.600;2023-03-08T12:29:08;9.70;61.00
51029;DHT22;37054;52.054;8.600;2023-03-08T12:31:37;9.70;61.20
51029;DHT22;37054;52.054;8.600;2023-03-08T12:34:12;9.80;61.80
51029;DHT22;37054;52.054;8.600;2023-03-08T12:36:39;9.80;61.40
51029;DHT22;37054;52.054;8.600;2023-03-08T12:39:08;9.80;61.10
51029;DHT22;37054;52.054;8.600;2023-03-08T12:41:55;9.70;61.20
51029;DHT22;37054;52.054;8.600;2023-03-08T12:44:29;9.80;61.30
51029;DHT22;37054;52.054;8.600;2023-03-08T12:47:19;9.70;61.00
51029;DHT22;37054;52.054;8.600;2023-03-08T12:49:48;9.60;60.60
51029;DHT22;37054;52.054;8.600;2023-03-08T12:52:35;9.50;61.00
51029;DHT22;37054;52.054;8.600;2023-03-08T12:55:26;9.50;61.40
51029;DHT22;37054;52.054;8.600;2023-03-08T12:58:02;9.50;61.10
51029;DHT22;37054;52.054;8.600;2023-03-08T13:05:38;9.40;60.50
51029;DHT22;37054;52.054;8.600;2023-03-08T13:10:37;9.30;60.50
51029;DHT22;37054;52.054;8.600;2023-03-08T13:15:35;9.30;60.70
51029;DHT22;37054;52.054;8.600;2023-03-08T13:28:07;9.10;61.20
51029;DHT22;37054;52.054;8.600;2023-03-08T13:33:26;9.20;61.30
51029;DHT22;37054;52.054;8.600;2023-03-08T13:35:55;9.20;61.00
51029;DHT22;37054;52.054;8.600;2023-03-08T13:38:22;9.20;61.50
51029;DHT22;37054;52.054;8.600;2023-03-08T13:40:49;9.30;61.40
51029;DHT22;37054;52.054;8.600;2023-03-08T13:43:19;9.30;61.00
51029;DHT22;37054;52.054;8.600;2023-03-08T13:45:48;9.30;60.80
51029;DHT22;37054;52.054;8.600;2023-03-08T13:48:17;9.30;60.80
51029;DHT22;37054;52.054;8.600;2023-03-08T13:50:47;9.30;61.00
51029;DHT22;37054;52.054;8.600;2023-03-08T13:56:15;9.20;60.70
51029;DHT22;37054;52.054;8.600;2023-03-08T13:58:44;9.30;61.30
51029;DHT22;37054;52.054;8.600;2023-03-08T14:01:11;9.30;61.40
51029;DHT22;37054;52.054;8.600;2023-03-08T14:03:38;9.30;60.90
51029;DHT22;37054;52.054;8.600;2023-03-08T14:08:49;9.30;60.20
51029;DHT22;37054;52.054;8.600;2023-03-08T14:11:21;9.20;60.60
51029;DHT22;37054;52.054;8.600;2023-03-08T14:13:51;9.20;60.50
51029;DHT22;37054;52.054;8.600;2023-03-08T14:21:51;9.20;61.00
51029;DHT22;37054;52.054;8.600;2023-03-08T14:24:20;9.30;61.20
51029;DHT22;37054;52.054;8.600;2023-03-08T14:26:53;9.30;61.30
51029;DHT22;37054;52.054;8.600;2023-03-08T14:29:31;9.40;61.30
51029;DHT22;37054;52.054;8.600;2023-03-08T14:34:31;9.50;61.60
51029;DHT22;37054;52.054;8.600;2023-03-08T14:37:16;9.50;61.50
51029;DHT22;37054;52.054;8.600;2023-03-08T14:39:48;9.50;61.20
51029;DHT22;37054;52.054;8.600;2023-03-08T14:42:42;9.50;60.80
51029;DHT22;37054;52.054;8.600;2023-03-08T14:48:19;9.40;60.60
51029;DHT22;37054;52.054;8.600;2023-03-08T14:53:41;9.40;61.10
51029;DHT22;37054;52.054;8.600;2023-03-08T14:56:14;9.40;61.30
51029;DHT22;37054;52.054;8.600;2023-03-08T14:58:41;9.40;60.40
51029;DHT22;37054;52.054;8.600;2023-03-08T15:01:11;9.30;60.70
51029;DHT22;37054;52.054;8.600;2023-03-08T15:03:38;9.20;60.40
51029;DHT22;37054;52.054;8.600;2023-03-08T15:06:15;9.20;60.70
51029;DHT22;37054;52.054;8.600;2023-03-08T15:08:42;9.20;60.50
51029;DHT22;37054;52.054;8.600;2023-03-08T15:11:08;9.20;60.20
51029;DHT22;37054;52.054;8.600;2023-03-08T15:13:33;9.10;60.60
51029;DHT22;37054;52.054;8.600;2023-03-08T15:15:59;9.10;60.50
51029;DHT22;37054;52.054;8.600;2023-03-08T15:18:25;9.10;60.70
51029;DHT22;37054;52.054;8.600;2023-03-08T15:20:55;9.10;60.90
51029;DHT22;37054;52.054;8.600;2023-03-08T15:23:30;9.20;60.80
51029;DHT22;37054;52.054;8.600;2023-03-08T15:26:09;9.20;61.00
51029;DHT22;37054;52.054;8.600;2023-03-08T15:28:38;9.20;61.00
51029;DHT22;37054;52.054;8.600;2023-03-08T15:31:03;9.20;60.90
51029;DHT22;37054;52.054;8.600;2023-03-08T15:33:29;9.10;60.80
51029;DHT22;37054;52.054;8.600;2023-03-08T15:35:58;9.10;60.70
51029;DHT22;37054;52.054;8.600;2023-03-08T15:38:29;9.10;60.40
51029;DHT22;37054;52.054;8.600;2023-03-08T15:41:03;9.00;60.00
51029;DHT22;37054;52.054;8.600;2023-03-08T15:43:29;9.00;60.20
51029;DHT22;37054;52.054;8.600;2023-03-08T15:45:57;8.90;60.60
51029;DHT22;37054;52.054;8.600;2023-03-08T15:48:23;8.90;60.60
51029;DHT22;37054;52.054;8.600;2023-03-08T15:50:57;8.80;60.50
51029;DHT22;37054;52.054;8.600;2023-03-08T15:53:23;8.80;60.50
51029;DHT22;37054;52.054;8.600;2023-03-08T15:55:48;8.80;60.70
51029;DHT22;37054;52.054;8.600;2023-03-08T15:58:14;8.80;61.00
51029;DHT22;37054;52.054;8.600;2023-03-08T16:00:39;8.80;60.90
51029;DHT22;37054;52.054;8.600;2023-03-08T16:03:05;8.80;60.90
51029;DHT22;37054;52.054;8.600;2023-03-08T16:05:31;8.70;60.60
51029;DHT22;37054;52.054;8.600;2023-03-08T16:07:57;8.60;60.30
51029;DHT22;37054;52.054;8.600;2023-03-08T16:10:24;8.50;59.90
51029;DHT22;37054;52.054;8.600;2023-03-08T16:12:51;8.40;59.80
51029;DHT22;37054;52.054;8.600;2023-03-08T16:15:16;8.20;60.00
51029;DHT22;37054;52.054;8.600;2023-03-08T16:17:43;8.10;60.00
51029;DHT22;37054;52.054;8.600;2023-03-08T16:20:09;7.90;60.20
51029;DHT22;37054;52.054;8.600;2023-03-08T16:22:35;7.90;60.30
51029;DHT22;37054;52.054;8.600;2023-03-08T16:25:01;7.80;60.60
51029;DHT22;37054;52.054;8.600;2023-03-08T16:27:30;7.70;60.90
51029;DHT22;37054;52.054;8.600;2023-03-08T16:29:58;7.70;61.00
51029;DHT22;37054;52.054;8.600;2023-03-08T16:32:24;7.70;61.20
51029;DHT22;37054;52.054;8.600;2023-03-08T16:34:50;7.60;61.30
51029;DHT22;37054;52.054;8.600;2023-03-08T16:37:19;7.60;61.30
51029;DHT22;37054;52.054;8.600;2023-03-08T16:39:45;7.50;61.20
51029;DHT22;37054;52.054;8.600;2023-03-08T16:42:12;7.50;61.60
51029;DHT22;37054;52.054;8.600;2023-03-08T16:44:38;7.50;61.50
51029;DHT22;37054;52.054;8.600;2023-03-08T16:47:04;7.40;61.50
51029;DHT22;37054;52.054;8.600;2023-03-08T16:49:30;7.30;61.60
51029;DHT22;37054;52.054;8.600;2023-03-08T16:51:56;7.30;61.60
51029;DHT22;37054;52.054;8.600;2023-03-08T16:54:22;7.30;61.80
51029;DHT22;37054;52.054;8.600;2023-03-08T16:56:48;7.30;61.80
51029;DHT22;37054;52.054;8.600;2023-03-08T16:59:14;7.30;62.00
51029;DHT22;37054;52.054;8.600;2023-03-08T17:01:40;7.20;61.90
51029;DHT22;37054;52.054;8.600;2023-03-08T17:04:09;7.30;62.00
51029;DHT22;37054;52.054;8.600;2023-03-08T17:06:35;7.20;62.00
51029;DHT22;37054;52.054;8.600;2023-03-08T17:09:00;7.20;62.20
51029;DHT22;37054;52.054;8.600;2023-03-08T17:11:27;7.20;62.20